createdAt,value
2023-01-24T00:01:02.131Z,-0.04
2023-01-24T00:03:28.906Z,-0.05
2023-01-24T00:05:55.386Z,-0.01
2023-01-24T00:08:25.031Z,-0.03
2023-01-24T00:11:10.236Z,-0.03
2023-01-24T00:13:37.879Z,-0.06
2023-01-24T00:16:15.917Z,-0.03
2023-01-24T00:18:42.631Z,-0.06
2023-01-24T00:21:15.709Z,-0.04
2023-01-24T00:23:48.131Z,-0.05
2023-01-24T00:26:15.261Z,-0.04
2023-01-24T00:28:42.061Z,-0.04
2023-01-24T00:31:08.676Z,-0.07
2023-01-24T00:33:35.433Z,-0.04
2023-01-24T00:36:02.727Z,-0.08
2023-01-24T00:38:30.507Z,-0.09
2023-01-24T00:40:57.539Z,-0.05
2023-01-24T00:43:24.005Z,-0.04
2023-01-24T00:45:50.437Z,-0.07
2023-01-24T00:48:16.869Z,-0.08
2023-01-24T00:50:43.305Z,-0.07
2023-01-24T00:53:09.911Z,-0.05
2023-01-24T00:55:43.498Z,-0.07
2023-01-24T00:58:10.406Z,-0.04
2023-01-24T01:00:39.495Z,-0.05
2023-01-24T01:03:10.202Z,-0.06
2023-01-24T01:05:36.580Z,-0.05
2023-01-24T01:08:03.065Z,-0.02
2023-01-24T01:10:29.460Z,-0.06
2023-01-24T01:12:55.840Z,-0.07
2023-01-24T01:15:22.570Z,-0.06
2023-01-24T01:17:49.419Z,-0.08
2023-01-24T01:20:15.914Z,-0.06
2023-01-24T01:22:42.460Z,-0.06
2023-01-24T01:25:09.327Z,-0.02
2023-01-24T01:27:35.747Z,-0.05
2023-01-24T01:30:02.097Z,-0.04
2023-01-24T01:32:28.495Z,-0.07
2023-01-24T01:34:54.951Z,-0.07
2023-01-24T01:37:21.390Z,-0.05
2023-01-24T01:39:47.844Z,-0.04
2023-01-24T01:42:15.789Z,-0.06
2023-01-24T01:44:44.325Z,0.00
2023-01-24T01:47:30.587Z,0.02
2023-01-24T01:50:19.605Z,-0.01
2023-01-24T01:52:45.987Z,-0.01
2023-01-24T01:55:19.622Z,0.04
2023-01-24T01:57:48.378Z,0.06
2023-01-24T02:00:18.878Z,0.02
2023-01-24T02:02:53.592Z,0.05
2023-01-24T02:05:24.906Z,0.05
2023-01-24T02:08:05.041Z,0.08
2023-01-24T02:10:51.642Z,0.08
2023-01-24T02:13:18.151Z,0.05
2023-01-24T02:16:05.191Z,0.10
2023-01-24T02:18:33.125Z,0.07
2023-01-24T02:20:59.841Z,0.12
2023-01-24T02:23:29.443Z,0.12
2023-01-24T02:26:14.666Z,0.10
2023-01-24T02:28:50.024Z,0.10
2023-01-24T02:31:16.896Z,0.10
2023-01-24T02:33:43.418Z,0.10
2023-01-24T02:36:25.646Z,0.09
2023-01-24T02:39:04.682Z,0.06
2023-01-24T02:41:39.325Z,0.06
2023-01-24T02:44:10.416Z,0.07
2023-01-24T02:46:38.211Z,0.12
2023-01-24T02:49:08.841Z,0.12
2023-01-24T02:51:53.909Z,0.11
2023-01-24T02:54:20.275Z,0.08
2023-01-24T02:57:04.981Z,0.10
2023-01-24T02:59:31.443Z,0.12
2023-01-24T03:01:57.875Z,0.10
2023-01-24T03:04:24.420Z,0.10
2023-01-24T03:06:50.823Z,0.12
2023-01-24T03:09:20.351Z,0.11
2023-01-24T03:11:47.933Z,0.10
2023-01-24T03:14:36.395Z,0.09
2023-01-24T03:17:21.193Z,0.07
2023-01-24T03:20:06.013Z,0.05
2023-01-24T03:22:50.846Z,0.03
2023-01-24T03:25:35.607Z,0.01
2023-01-24T03:28:25.135Z,-0.05
2023-01-24T03:31:09.783Z,-0.11
2023-01-24T03:33:54.554Z,-0.12
2023-01-24T03:36:32.438Z,-0.18
2023-01-24T03:39:17.544Z,-0.18
2023-01-24T03:41:44.119Z,-0.20
2023-01-24T03:44:10.832Z,-0.20
2023-01-24T03:46:40.993Z,-0.25
2023-01-24T03:49:08.471Z,-0.24
2023-01-24T03:51:54.642Z,-0.25
2023-01-24T03:54:21.085Z,-0.27
2023-01-24T03:56:50.005Z,-0.27
2023-01-24T03:59:17.227Z,-0.27
2023-01-24T04:01:43.664Z,-0.28
2023-01-24T04:04:10.149Z,-0.24
2023-01-24T04:06:36.493Z,-0.26
2023-01-24T04:09:04.102Z,-0.32
2023-01-24T04:11:30.469Z,-0.24
2023-01-24T04:13:56.904Z,-0.29
2023-01-24T04:16:23.301Z,-0.29
2023-01-24T04:18:49.708Z,-0.30
2023-01-24T04:21:16.114Z,-0.34
2023-01-24T04:23:42.630Z,-0.33
2023-01-24T04:26:09.025Z,-0.31
2023-01-24T04:28:35.658Z,-0.30
2023-01-24T04:31:03.529Z,-0.31
2023-01-24T04:33:30.083Z,-0.32
2023-01-24T04:36:00.059Z,-0.31
2023-01-24T04:38:26.873Z,-0.32
2023-01-24T04:41:00.775Z,-0.32
2023-01-24T04:43:27.316Z,-0.37
2023-01-24T04:45:58.781Z,-0.39
2023-01-24T04:48:25.272Z,-0.44
2023-01-24T04:50:52.121Z,-0.45
2023-01-24T04:53:18.533Z,-0.47
2023-01-24T04:55:44.945Z,-0.47
2023-01-24T04:58:11.328Z,-0.45
2023-01-24T05:00:37.741Z,-0.45
2023-01-24T05:03:04.149Z,-0.48
2023-01-24T05:05:30.526Z,-0.48
2023-01-24T05:07:56.955Z,-0.48
2023-01-24T05:10:24.396Z,-0.48
2023-01-24T05:12:50.989Z,-0.48
2023-01-24T05:15:18.863Z,-0.47
2023-01-24T05:17:45.402Z,-0.43
2023-01-24T05:20:12.425Z,-0.43
2023-01-24T05:22:38.789Z,-0.40
2023-01-24T05:25:05.758Z,-0.37
2023-01-24T05:27:32.115Z,-0.39
2023-01-24T05:29:58.474Z,-0.37
2023-01-24T05:32:24.934Z,-0.32
2023-01-24T05:34:51.309Z,-0.31
2023-01-24T05:37:17.751Z,-0.32
2023-01-24T05:39:44.167Z,-0.29
2023-01-24T05:42:10.668Z,-0.28
2023-01-24T05:44:37.040Z,-0.28
2023-01-24T05:47:03.561Z,-0.27
2023-01-24T05:49:29.921Z,-0.23
2023-01-24T05:51:56.360Z,-0.22
2023-01-24T05:54:22.716Z,-0.22
2023-01-24T05:56:49.143Z,-0.19
2023-01-24T05:59:15.531Z,-0.16
2023-01-24T06:01:41.989Z,-0.16
2023-01-24T06:04:08.368Z,-0.15
2023-01-24T06:06:34.895Z,-0.14
2023-01-24T06:09:01.399Z,-0.13
2023-01-24T06:11:28.401Z,-0.12
2023-01-24T06:13:57.642Z,-0.14
2023-01-24T06:16:25.799Z,-0.10
2023-01-24T06:18:54.049Z,-0.08
2023-01-24T06:21:23.152Z,-0.08
2023-01-24T06:23:49.781Z,-0.09
2023-01-24T06:26:16.431Z,-0.09
2023-01-24T06:28:43.087Z,-0.08
2023-01-24T06:31:22.806Z,-0.05
2023-01-24T06:33:55.252Z,-0.03
2023-01-24T06:36:42.341Z,-0.03
2023-01-24T06:39:15.183Z,-0.03
2023-01-24T06:41:42.190Z,-0.02
2023-01-24T06:44:10.972Z,-0.01
2023-01-24T06:46:37.636Z,0.03
2023-01-24T06:49:04.052Z,0.04
2023-01-24T06:51:30.405Z,0.02
2023-01-24T06:53:56.782Z,0.03
2023-01-24T06:56:23.165Z,0.03
2023-01-24T06:58:49.495Z,0.00
2023-01-24T07:01:15.812Z,0.00
2023-01-24T07:03:42.247Z,0.00
2023-01-24T07:06:08.655Z,-0.01
2023-01-24T07:08:35.072Z,0.01
2023-01-24T07:11:01.465Z,0.02
2023-01-24T07:13:28.114Z,0.00
2023-01-24T07:15:54.522Z,0.03
2023-01-24T07:18:21.358Z,0.03
2023-01-24T07:20:48.355Z,0.07
2023-01-24T07:23:28.994Z,0.07
2023-01-24T07:25:56.198Z,0.09
2023-01-24T07:28:22.672Z,0.09
2023-01-24T07:30:49.952Z,0.09
2023-01-24T07:33:16.687Z,0.11
2023-01-24T07:35:43.559Z,0.16
2023-01-24T07:38:10.255Z,0.14
2023-01-24T07:40:37.172Z,0.15
2023-01-24T07:43:04.612Z,0.16
2023-01-24T07:45:31.534Z,0.15
2023-01-24T07:47:59.364Z,0.15
2023-01-24T07:50:27.303Z,0.16
2023-01-24T07:52:54.439Z,0.12
2023-01-24T07:55:22.419Z,0.16
2023-01-24T07:57:49.365Z,0.16
2023-01-24T08:00:16.520Z,0.19
2023-01-24T08:02:44.629Z,0.24
2023-01-24T08:05:12.054Z,0.24
2023-01-24T08:07:38.393Z,0.22
2023-01-24T08:10:05.862Z,0.24
2023-01-24T08:12:32.355Z,0.25
2023-01-24T08:14:58.837Z,0.28
2023-01-24T08:17:25.315Z,0.30
2023-01-24T08:19:56.763Z,0.32
2023-01-24T08:22:24.505Z,0.33
2023-01-24T08:24:50.885Z,0.35
2023-01-24T08:27:17.284Z,0.36
2023-01-24T08:29:43.707Z,0.37
2023-01-24T08:32:10.165Z,0.43
2023-01-24T08:34:36.601Z,0.45
2023-01-24T08:37:02.971Z,0.48
2023-01-24T08:39:29.566Z,0.49
2023-01-24T08:41:56.221Z,0.56
2023-01-24T08:44:22.758Z,0.52
2023-01-24T08:46:49.169Z,0.55
2023-01-24T08:49:15.542Z,0.60
2023-01-24T08:51:42.006Z,0.58
2023-01-24T08:54:08.428Z,0.59
2023-01-24T08:56:35.365Z,0.64
2023-01-24T08:59:01.837Z,0.66
2023-01-24T09:01:28.463Z,0.68
2023-01-24T09:04:00.097Z,0.67
2023-01-24T09:06:27.163Z,0.69
2023-01-24T09:08:55.492Z,0.71
2023-01-24T09:11:22.843Z,0.73
2023-01-24T09:13:49.331Z,0.74
2023-01-24T09:16:15.766Z,0.68
2023-01-24T09:18:42.204Z,0.76
2023-01-24T09:21:08.725Z,0.75
2023-01-24T09:23:35.312Z,0.79
2023-01-24T09:26:01.690Z,0.83
2023-01-24T09:28:28.155Z,0.90
2023-01-24T09:30:54.872Z,0.92
2023-01-24T09:33:21.527Z,0.94
2023-01-24T09:36:01.784Z,0.95
2023-01-24T09:38:30.838Z,1.00
2023-01-24T09:41:09.211Z,1.03
2023-01-24T09:43:56.177Z,1.04
2023-01-24T09:46:32.973Z,1.07
2023-01-24T09:49:28.818Z,1.05
2023-01-24T09:51:55.422Z,1.08
2023-01-24T09:54:44.703Z,1.09
2023-01-24T09:57:25.512Z,1.14
2023-01-24T09:59:56.925Z,1.16
2023-01-24T10:02:26.002Z,1.14
2023-01-24T10:04:52.432Z,1.20
2023-01-24T10:07:40.866Z,1.22
2023-01-24T10:10:07.115Z,1.22
2023-01-24T10:13:01.728Z,1.23
2023-01-24T10:15:49.598Z,1.24
2023-01-24T10:18:35.650Z,1.27
2023-01-24T10:21:17.195Z,1.27
2023-01-24T10:23:49.599Z,1.27
2023-01-24T10:26:20.447Z,1.39
2023-01-24T10:28:52.622Z,1.46
2023-01-24T10:31:31.635Z,1.57
2023-01-24T10:34:09.908Z,1.62
2023-01-24T10:37:11.482Z,1.72
2023-01-24T10:39:38.554Z,1.75
2023-01-24T10:42:26.561Z,1.75
2023-01-24T10:44:55.666Z,1.81
2023-01-24T10:47:41.984Z,1.91
2023-01-24T10:50:13.929Z,1.89
2023-01-24T10:52:40.355Z,1.79
2023-01-24T10:55:31.394Z,1.72
2023-01-24T10:57:58.553Z,1.77
2023-01-24T11:00:34.330Z,1.81
2023-01-24T11:03:17.280Z,1.90
2023-01-24T11:05:48.756Z,1.88
2023-01-24T11:08:23.899Z,1.94
2023-01-24T11:11:01.411Z,1.98
2023-01-24T11:13:35.656Z,1.87
2023-01-24T11:16:22.391Z,1.82
2023-01-24T11:19:06.491Z,1.77
2023-01-24T11:21:33.767Z,1.69
2023-01-24T11:24:20.471Z,1.76
2023-01-24T11:26:55.955Z,1.78
2023-01-24T11:29:23.103Z,1.81
2023-01-24T11:32:07.183Z,1.81
2023-01-24T11:34:48.264Z,1.80
2023-01-24T11:37:26.745Z,1.85
2023-01-24T11:39:59.093Z,1.78
2023-01-24T11:42:45.934Z,1.77
2023-01-24T11:45:30.468Z,1.78
2023-01-24T11:48:09.073Z,1.83
2023-01-24T11:50:48.695Z,1.81
2023-01-24T11:53:38.840Z,1.85
2023-01-24T11:56:21.724Z,1.70
2023-01-24T11:59:22.298Z,1.76
2023-01-24T12:02:02.216Z,1.65
2023-01-24T12:04:40.737Z,1.71
2023-01-24T12:07:26.500Z,1.70
2023-01-24T12:10:22.345Z,1.63
2023-01-24T12:13:21.126Z,1.70
2023-01-24T12:15:53.415Z,1.73
2023-01-24T12:18:53.949Z,1.67
2023-01-24T12:21:20.367Z,1.73
2023-01-24T12:24:10.181Z,1.77
2023-01-24T12:26:43.033Z,1.78
2023-01-24T12:29:18.737Z,1.77
2023-01-24T12:31:58.287Z,1.76
2023-01-24T12:34:51.917Z,1.74
2023-01-24T12:37:59.757Z,1.78
2023-01-24T12:40:35.717Z,1.70
2023-01-24T12:43:23.020Z,1.67
2023-01-24T12:45:52.288Z,1.74
2023-01-24T12:48:39.012Z,1.71
2023-01-24T12:51:22.171Z,1.70
2023-01-24T12:54:24.180Z,1.62
2023-01-24T12:57:03.552Z,1.67
2023-01-24T12:59:33.286Z,1.73
2023-01-24T13:02:44.662Z,1.79
2023-01-24T13:05:21.807Z,1.66
2023-01-24T13:08:26.667Z,1.76
2023-01-24T13:11:29.310Z,1.74
2023-01-24T13:14:01.338Z,1.73
2023-01-24T13:16:46.143Z,1.71
2023-01-24T13:19:39.256Z,1.72
2023-01-24T13:22:36.769Z,1.66
2023-01-24T13:25:12.278Z,1.69
2023-01-24T13:28:23.411Z,1.62
2023-01-24T13:31:02.040Z,1.65
2023-01-24T13:33:38.561Z,1.66
2023-01-24T13:36:07.794Z,1.60
2023-01-24T13:38:42.983Z,1.62
2023-01-24T13:41:34.799Z,1.60
2023-01-24T13:44:07.257Z,1.62
2023-01-24T13:46:42.975Z,1.64
2023-01-24T13:50:02.021Z,1.58
2023-01-24T13:52:37.195Z,1.57
2023-01-24T13:55:23.933Z,1.54
2023-01-24T13:58:08.608Z,1.50
2023-01-24T14:00:46.771Z,1.50
2023-01-24T14:03:21.361Z,1.51
2023-01-24T14:05:51.881Z,1.47
2023-01-24T14:08:21.202Z,1.37
2023-01-24T14:10:54.143Z,1.35
2023-01-24T14:13:48.452Z,1.37
2023-01-24T14:16:27.503Z,1.39
2023-01-24T14:18:59.694Z,1.28
2023-01-24T14:21:36.080Z,1.31
2023-01-24T14:24:21.272Z,1.38
2023-01-24T14:27:12.664Z,1.36
2023-01-24T14:29:42.484Z,1.35
2023-01-24T14:32:46.706Z,1.27
2023-01-24T14:35:31.017Z,1.29
2023-01-24T14:38:14.954Z,1.22
2023-01-24T14:40:42.209Z,1.29
2023-01-24T14:43:12.045Z,1.31
2023-01-24T14:45:38.484Z,1.26
2023-01-24T14:48:11.448Z,1.23
2023-01-24T14:50:39.303Z,1.15
2023-01-24T14:53:28.118Z,1.21
2023-01-24T14:55:57.326Z,1.19
2023-01-24T14:58:26.542Z,1.08
2023-01-24T15:00:55.873Z,1.16
2023-01-24T15:03:25.870Z,1.16
2023-01-24T15:05:58.898Z,1.09
2023-01-24T15:08:26.399Z,1.09
2023-01-24T15:11:24.615Z,1.09
2023-01-24T15:13:55.894Z,1.10
2023-01-24T15:16:29.582Z,1.10
2023-01-24T15:19:03.549Z,1.07
2023-01-24T15:21:38.458Z,1.06
2023-01-24T15:24:06.620Z,1.03
2023-01-24T15:26:41.453Z,1.02
2023-01-24T15:29:43.769Z,0.99
2023-01-24T15:32:34.989Z,0.93
2023-01-24T15:35:33.747Z,0.91
2023-01-24T15:38:06.148Z,0.88
2023-01-24T15:40:34.662Z,0.90
2023-01-24T15:43:20.941Z,0.85
2023-01-24T15:46:12.504Z,0.84
2023-01-24T15:48:39.620Z,0.74
2023-01-24T15:51:11.941Z,0.78
2023-01-24T15:53:40.421Z,0.76
2023-01-24T15:56:13.082Z,0.70
2023-01-24T15:58:40.174Z,0.69
2023-01-24T16:01:06.852Z,0.65
2023-01-24T16:03:33.523Z,0.64
2023-01-24T16:06:00.093Z,0.72
2023-01-24T16:08:27.226Z,0.62
2023-01-24T16:10:59.138Z,0.63
2023-01-24T16:13:33.640Z,0.69
2023-01-24T16:16:02.701Z,0.60
2023-01-24T16:18:29.113Z,0.58
2023-01-24T16:20:55.603Z,0.51
2023-01-24T16:23:22.173Z,0.48
2023-01-24T16:25:51.200Z,0.50
2023-01-24T16:28:23.210Z,0.54
2023-01-24T16:30:50.862Z,0.47
2023-01-24T16:33:19.126Z,0.43
2023-01-24T16:35:46.219Z,0.42
2023-01-24T16:38:14.778Z,0.45
2023-01-24T16:40:41.861Z,0.51
2023-01-24T16:43:22.905Z,0.58
2023-01-24T16:45:51.325Z,0.54
2023-01-24T16:48:18.222Z,0.48
2023-01-24T16:50:46.388Z,0.42
2023-01-24T16:53:14.350Z,0.43
2023-01-24T16:55:41.949Z,0.42
2023-01-24T16:58:09.815Z,0.48
2023-01-24T17:00:37.699Z,0.44
2023-01-24T17:03:04.376Z,0.39
2023-01-24T17:05:31.155Z,0.40
2023-01-24T17:07:58.400Z,0.39
2023-01-24T17:10:26.547Z,0.31
2023-01-24T17:12:52.998Z,0.28
2023-01-24T17:15:19.533Z,0.27
2023-01-24T17:17:45.873Z,0.23
2023-01-24T17:20:12.524Z,0.27
2023-01-24T17:22:40.109Z,0.28
2023-01-24T17:25:08.036Z,0.29
2023-01-24T17:27:34.748Z,0.28
2023-01-24T17:30:01.296Z,0.27
2023-01-24T17:32:28.185Z,0.29
2023-01-24T17:34:54.525Z,0.28
2023-01-24T17:37:21.172Z,0.26
2023-01-24T17:39:49.966Z,0.28
2023-01-24T17:42:16.419Z,0.27
2023-01-24T17:44:42.857Z,0.20
2023-01-24T17:47:09.380Z,0.23
2023-01-24T17:49:36.448Z,0.28
2023-01-24T17:52:02.852Z,0.26
2023-01-24T17:54:29.313Z,0.20
2023-01-24T17:56:55.670Z,0.18
2023-01-24T17:59:22.034Z,0.22
2023-01-24T18:01:48.406Z,0.18
2023-01-24T18:04:14.878Z,0.14
2023-01-24T18:06:41.304Z,0.17
2023-01-24T18:09:07.739Z,0.11
2023-01-24T18:11:34.197Z,0.06
2023-01-24T18:14:00.637Z,0.11
2023-01-24T18:16:27.062Z,0.13
2023-01-24T18:18:53.476Z,0.15
2023-01-24T18:21:22.459Z,0.14
2023-01-24T18:24:00.049Z,0.14
2023-01-24T18:26:28.699Z,0.17
2023-01-24T18:28:56.922Z,0.18
2023-01-24T18:31:23.533Z,0.14
2023-01-24T18:33:53.804Z,0.13
2023-01-24T18:36:20.344Z,0.18
2023-01-24T18:38:46.916Z,0.17
2023-01-24T18:41:14.811Z,0.15
2023-01-24T18:43:41.675Z,0.15
2023-01-24T18:46:10.798Z,0.19
2023-01-24T18:48:39.683Z,0.19
2023-01-24T18:51:11.739Z,0.15
2023-01-24T18:53:38.150Z,0.16
2023-01-24T18:56:05.719Z,0.14
2023-01-24T18:58:34.732Z,0.11
2023-01-24T19:01:09.843Z,0.11
2023-01-24T19:03:36.260Z,0.11
2023-01-24T19:06:02.660Z,0.11
2023-01-24T19:08:29.031Z,0.09
2023-01-24T19:10:55.468Z,0.09
2023-01-24T19:13:21.916Z,0.07
2023-01-24T19:15:49.393Z,0.06
2023-01-24T19:18:17.814Z,0.11
2023-01-24T19:20:44.232Z,0.11
2023-01-24T19:23:10.665Z,0.06
2023-01-24T19:25:36.999Z,0.11
2023-01-24T19:28:03.422Z,0.10
2023-01-24T19:30:29.852Z,0.05
2023-01-24T19:32:56.525Z,0.06
2023-01-24T19:35:22.892Z,0.03
2023-01-24T19:37:52.280Z,0.06
2023-01-24T19:40:19.301Z,0.06
2023-01-24T19:42:47.865Z,0.07
2023-01-24T19:45:16.250Z,0.09
2023-01-24T19:47:42.649Z,0.11
2023-01-24T19:50:09.888Z,0.10
2023-01-24T19:52:36.287Z,0.10
2023-01-24T19:55:02.933Z,0.08
2023-01-24T19:57:29.409Z,0.07
2023-01-24T19:59:56.022Z,0.00
2023-01-24T20:02:22.507Z,0.02
2023-01-24T20:04:52.933Z,0.05
2023-01-24T20:07:20.879Z,0.06
2023-01-24T20:09:47.462Z,0.06
2023-01-24T20:12:13.893Z,0.07
2023-01-24T20:14:40.266Z,0.10
2023-01-24T20:17:06.655Z,0.04
2023-01-24T20:19:33.004Z,0.03
2023-01-24T20:21:59.786Z,0.03
2023-01-24T20:24:27.047Z,0.05
2023-01-24T20:26:53.887Z,0.05
2023-01-24T20:29:20.477Z,0.00
2023-01-24T20:31:47.452Z,0.03
2023-01-24T20:34:15.415Z,0.03
2023-01-24T20:36:41.889Z,0.06
2023-01-24T20:39:09.918Z,0.05
2023-01-24T20:41:36.425Z,0.04
2023-01-24T20:44:03.800Z,0.03
2023-01-24T20:46:30.623Z,-0.02
2023-01-24T20:48:59.293Z,-0.04
2023-01-24T20:51:31.595Z,-0.05
2023-01-24T20:53:59.679Z,-0.01
2023-01-24T20:56:27.558Z,0.00
2023-01-24T20:58:55.850Z,-0.02
2023-01-24T21:01:23.502Z,-0.04
2023-01-24T21:03:50.232Z,-0.02
2023-01-24T21:06:19.709Z,-0.04
2023-01-24T21:08:47.155Z,-0.08
2023-01-24T21:11:19.105Z,-0.05
2023-01-24T21:13:51.614Z,-0.03
2023-01-24T21:16:19.092Z,-0.08
2023-01-24T21:18:51.138Z,-0.09
2023-01-24T21:21:18.639Z,-0.11
2023-01-24T21:23:45.156Z,-0.10
2023-01-24T21:26:16.177Z,-0.06
2023-01-24T21:28:44.491Z,-0.07
2023-01-24T21:31:13.823Z,-0.07
2023-01-24T21:33:40.645Z,-0.07
2023-01-24T21:36:10.564Z,-0.06
2023-01-24T21:38:36.945Z,-0.06
2023-01-24T21:41:26.481Z,-0.06
2023-01-24T21:43:53.174Z,-0.03
2023-01-24T21:46:19.620Z,-0.05
2023-01-24T21:49:04.915Z,-0.01
2023-01-24T21:51:38.655Z,-0.09
2023-01-24T21:54:20.395Z,-0.05
2023-01-24T21:57:33.489Z,-0.12
2023-01-24T22:00:02.514Z,-0.10
2023-01-24T22:02:31.196Z,-0.11
2023-01-24T22:04:58.788Z,-0.16
2023-01-24T22:07:27.242Z,-0.05
2023-01-24T22:09:56.052Z,-0.07
2023-01-24T22:12:22.891Z,-0.09
2023-01-24T22:14:50.804Z,-0.09
2023-01-24T22:17:23.028Z,-0.10
2023-01-24T22:19:57.594Z,-0.18
2023-01-24T22:22:58.377Z,-0.12
2023-01-24T22:25:38.461Z,-0.10
2023-01-24T22:28:05.177Z,-0.09
2023-01-24T22:30:32.716Z,-0.16
2023-01-24T22:33:00.984Z,-0.13
2023-01-24T22:35:28.253Z,-0.13
2023-01-24T22:37:57.912Z,-0.08
2023-01-24T22:40:25.830Z,-0.16
2023-01-24T22:42:56.989Z,-0.14
2023-01-24T22:45:28.290Z,-0.14
2023-01-24T22:47:55.484Z,-0.15
2023-01-24T22:50:22.489Z,-0.21
2023-01-24T22:52:49.635Z,-0.22
2023-01-24T22:55:16.895Z,-0.23
2023-01-24T22:57:43.323Z,-0.22
2023-01-24T23:00:12.209Z,-0.24
2023-01-24T23:02:38.846Z,-0.24
2023-01-24T23:05:05.990Z,-0.27
2023-01-24T23:07:32.725Z,-0.26
2023-01-24T23:09:59.115Z,-0.24
2023-01-24T23:12:48.681Z,-0.28
2023-01-24T23:15:33.454Z,-0.30
2023-01-24T23:18:07.528Z,-0.25
2023-01-24T23:20:52.686Z,-0.26
2023-01-24T23:23:19.059Z,-0.29
2023-01-24T23:25:45.404Z,-0.27
2023-01-24T23:28:11.788Z,-0.29
2023-01-24T23:30:43.280Z,-0.27
2023-01-24T23:33:33.777Z,-0.29
2023-01-24T23:36:01.723Z,-0.27
2023-01-24T23:38:30.036Z,-0.35
2023-01-24T23:40:56.455Z,-0.31
2023-01-24T23:43:22.965Z,-0.28
2023-01-24T23:45:49.438Z,-0.29
2023-01-24T23:48:15.833Z,-0.29
2023-01-24T23:50:42.215Z,-0.37
2023-01-24T23:53:08.630Z,-0.42
2023-01-24T23:55:35.014Z,-0.37
2023-01-24T23:58:02.668Z,-0.38
